Baconton, Georgia
Current Conditions -  °F | °C
As of 10:53 AM on Saturday 25 Oct 2014 (Local Time) from KABY Reporting Station
Clear Clear  
Wind Chill: 65°   Ceiling: Unl
Heat Index: 65°   Visibility: 10mi
Dew Point: 47°   Wind: 5mph
Humidity: 52%   Direction: 350°N
Pressure: 30.09"   Gusts: NA
Location:  31.38°N, 84.16°W
Report Text: KABY 251453Z 35004KT 10SM CLR 18/08 A3009 RMK AO2 SLP188 T01830083 51008
Loading
Personal Weather Stations






























Interactive Weather Map
Tropical Storm Tracking
New forecast layout! Learn more

10-Day Weather Forecast

Advertisements
Track Severe Weather on mobile